Terminal Aerodrome Forecast
Issued by NWS Wilmington, OH

Current Version | Previous Version | Graphics & Text | Print | Product List | Glossary On
Versions: 1 2 3 4 5 6 7 8 9 10 11 12 13 14 15 16 17 18
000
FTUS41 KILN 241700
TAFDAY
TAF
KDAY 241738Z 2418/2518 22014G24KT P6SM SCT120 BKN200
     FM250000 24014G22KT P6SM BKN050
     FM250200 25012KT P6SM OVC022
     FM250900 29008KT P6SM BKN022
     FM251500 34004KT P6SM BKN022=

USA.gov is the U.S. government's official web portal to all federal, state and local government web resources and services.